Time;durP1;ratioP1;P1;durP2;ratioP2;P2;SDS_P1;SDS_P2;PMS_P1;PMS_P2;Temp;Humidity;BMP_temperature;BMP_pressure;BME280_temperature;BME280_humidity;BME280_pressure;Samples;Min_cycle;Max_cycle;Signal;HPM_P1;HPM_P2
2021/12/06 00:01:20;;;;;;;28.87;22.80;;;;;;;2.92;86.68;101078.34;5069123;28;20383;-86
2021/12/06 00:03:56;;;;;;;28.63;22.53;;;;;;;2.92;87.07;101083.47;5069051;28;20029;-85
2021/12/06 00:06:23;;;;;;;28.77;23.30;;;;;;;2.94;86.98;101084.34;5068614;28;20024;-86
2021/12/06 00:08:48;;;;;;;28.27;21.97;;;;;;;2.95;87.23;101093.78;5068485;28;20139;-85
2021/12/06 00:11:14;;;;;;;31.27;22.63;;;;;;;2.95;87.19;101094.66;5070882;28;20064;-85
2021/12/06 00:13:43;;;;;;;30.27;22.83;;;;;;;2.95;87.22;101098.91;5072491;28;20051;-85
2021/12/06 00:16:15;;;;;;;31.73;24.33;;;;;;;2.94;87.16;101102.34;5069602;28;20035;-85
2021/12/06 00:18:41;;;;;;;28.43;22.70;;;;;;;2.95;87.44;101104.06;5069008;28;20074;-86
2021/12/06 00:21:07;;;;;;;30.60;23.80;;;;;;;2.93;87.58;101104.06;5068902;28;20428;-85
2021/12/06 00:23:32;;;;;;;28.70;22.80;;;;;;;2.93;87.33;101106.63;5070183;28;20414;-86
2021/12/06 00:25:58;;;;;;;27.87;22.77;;;;;;;2.95;87.40;101106.63;5071769;28;20024;-85
2021/12/06 00:28:24;;;;;;;27.00;22.40;;;;;;;2.95;87.55;101115.22;5072225;28;20495;-85
2021/12/06 00:30:50;;;;;;;31.40;23.23;;;;;;;2.94;87.47;101108.34;5070773;28;20446;-85
2021/12/06 00:33:15;;;;;;;30.40;23.53;;;;;;;2.95;87.94;101114.34;5072443;28;20146;-86
2021/12/06 00:35:42;;;;;;;29.27;22.37;;;;;;;2.96;87.37;101116.94;5070242;28;20078;-85
2021/12/06 00:38:07;;;;;;;27.43;22.03;;;;;;;2.97;87.63;101128.06;5070270;28;20024;-86
2021/12/06 00:40:42;;;;;;;26.17;22.20;;;;;;;2.98;87.38;101127.22;5069226;28;20502;-85
2021/12/06 00:43:08;;;;;;;26.73;21.47;;;;;;;2.97;87.56;101128.06;5070103;28;20036;-86
2021/12/06 00:45:34;;;;;;;26.27;20.20;;;;;;;2.99;87.48;101136.66;5069599;28;20077;-86
2021/12/06 00:48:00;;;;;;;27.53;21.77;;;;;;;2.99;87.11;101137.50;5069259;28;20024;-85
2021/12/06 00:50:31;;;;;;;27.00;21.73;;;;;;;2.97;87.41;101130.66;5068181;28;20400;-86
2021/12/06 00:52:56;;;;;;;29.53;23.00;;;;;;;3.00;87.32;101141.81;5071076;28;20024;-85
2021/12/06 00:55:23;;;;;;;27.17;21.87;;;;;;;2.99;87.54;101136.66;5067609;28;20024;-86
2021/12/06 00:57:52;;;;;;;26.30;21.43;;;;;;;2.96;87.40;101142.66;5070099;28;20109;-86
2021/12/06 01:00:24;;;;;;;33.47;24.63;;;;;;;2.98;87.53;101147.78;5069939;28;20040;-85
2021/12/06 01:02:50;;;;;;;29.17;23.87;;;;;;;2.95;87.13;101156.34;5071320;28;20032;-86
2021/12/06 01:05:15;;;;;;;25.47;21.97;;;;;;;2.96;87.12;101157.19;5070923;28;20412;-85
2021/12/06 01:07:41;;;;;;;27.30;21.90;;;;;;;2.96;87.17;101162.34;5068915;28;20479;-85
2021/12/06 01:10:08;;;;;;;25.63;20.67;;;;;;;2.93;87.19;101168.31;5069353;28;20052;-86
2021/12/06 01:12:33;;;;;;;25.50;20.30;;;;;;;2.90;87.00;101170.00;5069098;28;20035;-86
2021/12/06 01:14:58;;;;;;;24.03;20.30;;;;;;;2.85;87.05;101178.50;5068519;28;20033;-86
2021/12/06 01:17:24;;;;;;;28.57;23.07;;;;;;;2.83;87.26;101187.91;5069283;28;20029;-85
2021/12/06 01:19:50;;;;;;;29.00;23.40;;;;;;;2.81;87.21;101187.00;5069116;28;20394;-85
2021/12/06 01:22:31;;;;;;;32.37;24.27;;;;;;;2.82;87.53;101196.44;5070108;28;20093;-86
2021/12/06 01:25:03;;;;;;;33.67;24.57;;;;;;;2.81;87.44;101197.28;5066609;28;20020;-86
2021/12/06 01:27:43;;;;;;;31.97;24.83;;;;;;;2.84;87.82;101199.03;5065281;28;20032;-85
2021/12/06 01:40:58;;;;;;;35.63;24.93;;;;;;;2.93;87.95;101188.00;5065602;28;20054;-85
2021/12/06 01:43:23;;;;;;;31.67;23.80;;;;;;;2.89;87.88;101194.81;5069459;28;20460;-85
2021/12/06 01:45:49;;;;;;;32.27;25.20;;;;;;;2.90;88.08;101190.56;5065096;28;20698;-86
2021/12/06 01:48:14;;;;;;;31.80;23.97;;;;;;;2.92;87.54;101196.53;5069926;28;21637;-85
2021/12/06 01:50:40;;;;;;;30.43;23.20;;;;;;;2.92;87.76;101202.56;5068432;28;20116;-85
2021/12/06 01:53:06;;;;;;;30.83;23.43;;;;;;;2.93;87.64;101200.84;5067886;28;20480;-85
2021/12/06 01:55:34;;;;;;;31.27;23.27;;;;;;;2.94;87.67;101208.59;5069415;28;20036;-86
2021/12/06 01:58:01;;;;;;;30.57;22.83;;;;;;;2.94;87.63;101202.56;5067084;28;20040;-86
2021/12/06 02:01:02;;;;;;;29.77;23.17;;;;;;;2.93;87.24;101218.81;5069746;28;20055;-85
2021/12/06 02:03:27;;;;;;;32.50;24.23;;;;;;;2.95;87.20;101215.44;5046499;28;20040;-85
2021/12/06 02:05:52;;;;;;;28.43;23.00;;;;;;;2.95;87.31;101212.00;5069786;28;20861;-85
2021/12/06 02:08:18;;;;;;;30.20;24.20;;;;;;;2.96;87.31;101218.88;5067010;28;20056;-85
2021/12/06 02:10:44;;;;;;;31.27;23.77;;;;;;;2.96;87.38;101214.63;5067183;28;20027;-85
2021/12/06 02:13:10;;;;;;;30.63;23.30;;;;;;;2.93;87.51;101219.72;5067171;28;20036;-85
2021/12/06 02:15:44;;;;;;;28.00;22.00;;;;;;;2.94;87.70;101215.41;5067496;28;20059;-86
2021/12/06 02:18:26;;;;;;;28.47;22.33;;;;;;;2.96;87.44;101218.88;5082638;28;20028;-85
2021/12/06 02:21:01;;;;;;;29.75;23.73;;;;;;;2.98;87.34;101215.50;5068375;28;20051;-85
2021/12/06 02:23:27;;;;;;;32.67;24.17;;;;;;;2.97;87.53;101221.47;5066885;28;20078;-86
2021/12/06 02:25:52;;;;;;;33.30;24.07;;;;;;;2.97;87.58;101224.06;5068188;28;20020;-86
2021/12/06 02:28:17;;;;;;;31.77;24.63;;;;;;;2.97;87.55;101220.59;5068157;28;20024;-86
2021/12/06 02:30:43;;;;;;;33.47;25.77;;;;;;;2.96;87.76;101219.75;5067114;28;20097;-86
2021/12/06 02:33:08;;;;;;;32.80;26.43;;;;;;;2.96;87.62;101222.31;5067925;28;20078;-85
2021/12/06 02:35:34;;;;;;;35.17;25.90;;;;;;;2.96;87.87;101229.16;5065626;28;20047;-85
2021/12/06 02:38:02;;;;;;;33.17;26.07;;;;;;;2.95;87.78;101230.00;5067997;28;20200;-85
2021/12/06 02:40:30;;;;;;;33.93;25.70;;;;;;;2.94;88.10;101233.41;5068833;28;20082;-85
2021/12/06 02:42:57;;;;;;;36.60;26.03;;;;;;;2.92;88.04;101228.25;5067123;28;20063;-85
2021/12/06 02:45:27;;;;;;;33.80;25.83;;;;;;;2.94;87.57;101233.41;5068678;28;20650;-86
2021/12/06 02:47:54;;;;;;;32.50;24.83;;;;;;;2.93;88.00;101234.25;5071180;28;20031;-86
2021/12/06 02:50:27;;;;;;;36.00;26.07;;;;;;;2.93;88.05;101237.69;5071147;28;20418;-86
2021/12/06 02:52:54;;;;;;;33.53;24.93;;;;;;;2.92;87.63;101240.22;5074088;28;20479;-85
2021/12/06 02:55:31;;;;;;;30.47;22.87;;;;;;;2.91;87.54;101247.09;5068909;28;20232;-85
2021/12/06 02:58:16;;;;;;;29.70;23.03;;;;;;;2.88;87.35;101258.22;5072351;28;20027;-85
2021/12/06 03:00:48;;;;;;;32.57;23.27;;;;;;;2.86;87.31;101259.91;5074112;28;20037;-86
2021/12/06 03:03:14;;;;;;;33.55;24.98;;;;;;;2.88;87.33;101262.47;5070856;28;20035;-85
2021/12/06 03:05:40;;;;;;;32.87;25.17;;;;;;;2.90;87.29;101259.94;5072353;28;20020;-86
2021/12/06 03:08:06;;;;;;;34.53;25.43;;;;;;;2.87;87.33;101261.63;5070114;28;20036;-85
2021/12/06 03:10:31;;;;;;;32.27;25.03;;;;;;;2.84;87.12;101255.56;5070517;28;20090;-85
2021/12/06 03:12:57;;;;;;;32.83;25.00;;;;;;;2.83;87.46;101264.97;5072908;28;20467;-85
2021/12/06 03:15:23;;;;;;;31.53;24.20;;;;;;;2.81;87.51;101251.25;5070850;28;20025;-86
2021/12/06 03:17:49;;;;;;;38.80;27.03;;;;;;;2.82;87.20;101263.25;5071777;28;20020;-85
2021/12/06 03:20:15;;;;;;;36.77;26.53;;;;;;;2.85;87.45;101270.13;5069597;28;20032;-85
2021/12/06 03:22:43;;;;;;;36.10;26.67;;;;;;;2.87;87.44;101264.19;5070356;28;20048;-85
2021/12/06 03:25:11;;;;;;;37.80;27.03;;;;;;;2.87;87.64;101264.19;5067696;28;20017;-85
2021/12/06 03:27:37;;;;;;;38.17;27.13;;;;;;;2.86;87.28;101270.16;5071523;28;20074;-85
2021/12/06 03:30:05;;;;;;;33.20;25.67;;;;;;;2.88;87.53;101267.59;5069816;28;20028;-85
2021/12/06 03:32:30;;;;;;;35.30;25.60;;;;;;;2.87;87.49;101266.75;5071599;28;20429;-85
2021/12/06 03:34:55;;;;;;;33.50;25.03;;;;;;;2.89;87.26;101269.34;5070121;28;20020;-85
2021/12/06 03:37:21;;;;;;;37.70;26.20;;;;;;;2.89;87.54;101269.34;5071434;28;20032;-86
2021/12/06 03:39:48;;;;;;;36.53;26.30;;;;;;;2.92;87.86;101269.38;5070322;28;20044;-85
2021/12/06 03:42:15;;;;;;;36.40;26.37;;;;;;;2.92;87.93;101273.63;5071388;28;20060;-85
2021/12/06 03:44:41;;;;;;;38.63;27.73;;;;;;;2.91;87.94;101274.47;5069174;28;20141;-85
2021/12/06 03:47:13;;;;;;;37.30;27.23;;;;;;;2.92;87.77;101276.22;5071065;28;20447;-85
2021/12/06 03:49:38;;;;;;;34.30;25.63;;;;;;;2.91;87.94;101271.91;5070489;28;20111;-85
2021/12/06 03:52:05;;;;;;;32.80;25.57;;;;;;;2.92;87.64;101283.91;5068250;28;20107;-85
2021/12/06 03:54:31;;;;;;;38.67;26.57;;;;;;;2.87;87.77;101287.31;5068365;28;20045;-85
2021/12/06 03:56:56;;;;;;;37.67;27.17;;;;;;;2.88;88.04;101280.47;5072048;28;20078;-86
2021/12/06 03:59:23;;;;;;;39.63;28.20;;;;;;;2.89;88.08;101284.75;5072256;28;20028;-85
2021/12/06 04:01:48;;;;;;;36.30;27.53;;;;;;;2.84;87.99;101282.13;5068815;28;20032;-86
2021/12/06 04:04:14;;;;;;;38.00;27.30;;;;;;;2.81;87.89;101274.38;5070734;28;20077;-85
2021/12/06 04:06:41;;;;;;;37.90;27.73;;;;;;;2.84;88.03;101277.00;5071230;28;20434;-85
2021/12/06 04:09:08;;;;;;;40.77;28.33;;;;;;;2.85;87.93;101281.28;5071859;28;20568;-86
2021/12/06 04:11:34;;;;;;;38.03;28.07;;;;;;;2.88;88.11;101283.91;5068560;28;20029;-86
2021/12/06 04:14:02;;;;;;;39.20;27.50;;;;;;;2.87;87.89;101279.59;5070087;28;20048;-85
2021/12/06 04:16:27;;;;;;;38.30;27.60;;;;;;;2.85;87.78;101278.72;5070051;28;20031;-85
2021/12/06 04:18:52;;;;;;;37.53;28.40;;;;;;;2.87;87.93;101277.03;5071654;28;20033;-85
2021/12/06 04:21:19;;;;;;;37.30;26.50;;;;;;;2.85;87.99;101281.28;5069550;28;20032;-85
2021/12/06 04:23:45;;;;;;;34.57;24.97;;;;;;;2.81;87.68;101286.38;5069278;28;20036;-85
2021/12/06 04:26:10;;;;;;;31.43;23.80;;;;;;;2.85;87.35;101294.13;5070017;28;20020;-86
2021/12/06 04:28:36;;;;;;;30.67;23.30;;;;;;;2.84;86.95;101296.66;5069793;28;20032;-86
2021/12/06 04:31:04;;;;;;;33.17;23.87;;;;;;;2.80;86.92;101288.06;5070406;28;20031;-86
2021/12/06 04:33:31;;;;;;;33.37;24.70;;;;;;;2.78;87.31;101287.19;5072064;28;20069;-85
2021/12/06 04:35:56;;;;;;;31.57;23.30;;;;;;;2.75;87.15;101291.41;5082631;28;20048;-85
2021/12/06 04:38:22;;;;;;;29.43;21.97;;;;;;;2.72;86.72;101282.81;5074374;28;20464;-85
2021/12/06 04:40:48;;;;;;;29.43;21.20;;;;;;;2.71;86.21;101290.53;5077254;28;20487;-86
2021/12/06 04:43:13;;;;;;;33.10;24.30;;;;;;;2.65;86.36;101282.72;5070543;28;20395;-85
2021/12/06 04:45:39;;;;;;;33.13;24.33;;;;;;;2.64;86.74;101288.69;5072025;28;20471;-85
2021/12/06 04:48:07;;;;;;;33.83;24.50;;;;;;;2.56;86.35;101288.59;5078510;28;20028;-85
2021/12/06 04:50:33;;;;;;;32.83;24.27;;;;;;;2.48;86.67;101291.03;5080789;28;20475;-85
2021/12/06 04:53:12;;;;;;;27.53;20.70;;;;;;;2.44;85.60;101296.97;5079392;28;20032;-85
2021/12/06 04:56:03;;;;;;;29.80;22.00;;;;;;;2.42;85.72;101293.50;5072257;28;20096;-85
2021/12/06 04:58:41;;;;;;;36.23;25.30;;;;;;;2.38;86.63;101291.75;5076082;28;20044;-86
2021/12/06 05:01:13;;;;;;;38.90;27.40;;;;;;;2.30;87.00;101298.47;5072250;28;20035;-86
2021/12/06 05:03:40;;;;;;;34.85;24.33;;;;;;;2.27;86.38;101304.41;5081939;28;20036;-86
2021/12/06 05:06:11;;;;;;;34.27;25.23;;;;;;;2.16;86.55;101306.81;5077481;28;20028;-85
2021/12/06 05:08:40;;;;;;;37.73;26.00;;;;;;;2.14;86.68;101308.47;5069774;28;20041;-85
2021/12/06 05:11:07;;;;;;;37.27;25.27;;;;;;;2.09;86.16;101315.22;5069745;28;20066;-86
2021/12/06 05:13:34;;;;;;;41.27;28.40;;;;;;;2.00;86.41;101318.50;5069965;28;20028;-85
2021/12/06 05:15:59;;;;;;;38.17;28.17;;;;;;;2.02;86.95;101318.56;5069855;28;20024;-85
2021/12/06 05:18:25;;;;;;;43.50;29.33;;;;;;;1.96;87.23;101316.75;5075528;28;20104;-85
2021/12/06 05:20:51;;;;;;;39.80;26.70;;;;;;;1.93;86.71;101322.66;5073636;28;20107;-85
2021/12/06 05:23:19;;;;;;;33.17;23.67;;;;;;;1.84;86.15;101325.09;5068709;28;20054;-85
2021/12/06 05:25:45;;;;;;;33.33;22.43;;;;;;;1.76;85.38;101318.94;5067993;28;20024;-85
2021/12/06 05:28:10;;;;;;;33.10;23.43;;;;;;;1.76;85.34;101319.81;5067535;28;20024;-85
2021/12/06 05:30:38;;;;;;;86.03;22.77;;;;;;;1.73;85.78;101332.59;5066981;28;20035;-85
2021/12/06 05:33:04;;;;;;;29.10;21.23;;;;;;;1.66;85.96;101331.59;5066239;28;20027;-85
2021/12/06 05:35:30;;;;;;;34.60;23.93;;;;;;;1.64;85.63;101333.28;5069881;28;20024;-85
2021/12/06 05:37:57;;;;;;;36.60;25.17;;;;;;;1.63;85.88;101339.22;5068941;28;20170;-86
2021/12/06 05:40:26;;;;;;;33.47;22.07;;;;;;;1.57;85.58;101341.66;5069241;28;20108;-86
2021/12/06 05:42:53;;;;;;;32.43;23.83;;;;;;;1.53;85.17;101334.78;5066122;28;20496;-86
2021/12/06 05:45:20;;;;;;;36.13;23.63;;;;;;;1.50;85.52;101334.72;5068551;28;20020;-85
2021/12/06 05:47:45;;;;;;;35.70;24.17;;;;;;;1.46;85.34;101338.03;5068953;28;20035;-85
2021/12/06 05:50:12;;;;;;;68.97;21.97;;;;;;;1.39;85.44;101331.03;5070734;28;20024;-85
2021/12/06 05:52:38;;;;;;;48.50;20.40;;;;;;;1.36;85.44;101327.63;5068877;28;20033;-85
2021/12/06 05:55:05;;;;;;;55.40;19.40;;;;;;;1.32;85.72;101318.13;5069477;28;20040;-85
2021/12/06 05:57:31;;;;;;;104.23;17.60;;;;;;;1.27;85.81;101321.44;5068122;28;20028;-85
2021/12/06 05:59:56;;;;;;;148.40;18.97;;;;;;;1.20;84.90;101322.97;5066679;28;20213;-85
2021/12/06 06:02:22;;;;;;;116.80;21.33;;;;;;;1.13;84.51;101331.41;5066826;28;20188;-85
2021/12/06 06:04:49;;;;;;;66.73;23.23;;;;;;;1.13;85.10;101334.81;5068716;28;20514;-86
2021/12/06 06:07:14;;;;;;;62.93;25.40;;;;;;;1.16;85.65;101334.03;5068890;28;20099;-85
2021/12/06 06:09:40;;;;;;;55.20;26.00;;;;;;;1.17;86.70;101340.88;5069398;28;20166;-85
2021/12/06 06:12:06;;;;;;;69.30;27.87;;;;;;;1.17;86.70;101336.59;5064281;28;20052;-86
2021/12/06 06:14:32;;;;;;;70.50;26.90;;;;;;;1.18;86.85;101347.75;5069658;28;20026;-85
2021/12/06 06:17:07;;;;;;;43.33;25.00;;;;;;;1.17;86.67;101351.13;5068376;28;20032;-85
2021/12/06 06:19:32;;;;;;;39.73;24.33;;;;;;;1.17;86.22;101351.13;5068844;28;20428;-85
2021/12/06 06:21:58;;;;;;;45.37;25.30;;;;;;;1.17;86.01;101356.25;5064595;28;20033;-85
2021/12/06 06:24:23;;;;;;;50.93;24.10;;;;;;;1.14;86.34;101359.59;5069743;28;20399;-85
2021/12/06 06:26:49;;;;;;;53.87;23.57;;;;;;;1.11;85.47;101361.25;5067454;28;20020;-85
2021/12/06 06:29:14;;;;;;;33.53;23.90;;;;;;;1.07;85.41;101360.31;5068289;28;20029;-85
2021/12/06 06:31:40;;;;;;;107.13;24.00;;;;;;;1.02;85.30;101351.66;5069146;28;20027;-85
2021/12/06 06:34:05;;;;;;;87.93;25.03;;;;;;;1.00;84.86;101361.88;5065281;28;20078;-86
2021/12/06 06:36:31;;;;;;;100.10;25.07;;;;;;;0.98;84.95;101363.53;5065787;28;20539;-85
2021/12/06 06:38:56;;;;;;;95.10;24.70;;;;;;;0.93;84.83;101362.56;5065509;28;20067;-85
2021/12/06 06:41:21;;;;;;;115.50;25.20;;;;;;;0.87;85.13;101372.66;5068155;28;20357;-85
2021/12/06 06:43:47;;;;;;;185.23;25.37;;;;;;;0.81;85.90;101362.28;5067104;28;20029;-85
2021/12/06 06:46:12;;;;;;;113.23;21.40;;;;;;;0.78;85.59;101372.47;5068048;28;20027;-85
2021/12/06 06:48:38;;;;;;;161.03;23.30;;;;;;;0.73;86.12;101370.66;5068634;28;20063;-85
2021/12/06 06:51:03;;;;;;;199.23;24.47;;;;;;;0.69;86.66;101368.84;5070000;28;20021;-85
2021/12/06 06:53:29;;;;;;;136.47;21.13;;;;;;;0.70;86.53;101367.16;5067094;28;20184;-86
2021/12/06 06:55:56;;;;;;;135.37;21.13;;;;;;;0.69;87.06;101368.84;5067997;28;20549;-85
2021/12/06 06:58:22;;;;;;;86.00;19.90;;;;;;;0.72;86.77;101368.06;5068715;28;20503;-86
2021/12/06 07:00:47;;;;;;;107.00;19.97;;;;;;;0.72;87.23;101374.03;5070916;28;20016;-86
2021/12/06 07:03:13;;;;;;;111.27;20.50;;;;;;;0.75;87.05;101379.25;5069459;28;20025;-85
2021/12/06 07:05:39;;;;;;;129.17;19.27;;;;;;;0.78;87.11;101382.72;5069749;28;20023;-86
2021/12/06 07:08:05;;;;;;;161.70;20.20;;;;;;;0.80;87.31;101378.50;5067051;28;20027;-86
2021/12/06 07:10:31;;;;;;;94.80;19.97;;;;;;;0.84;86.91;101386.28;5068728;28;20020;-85
2021/12/06 07:13:00;;;;;;;39.10;18.83;;;;;;;0.86;87.20;101376.06;5067144;28;20406;-85
2021/12/06 07:15:28;;;;;;;136.67;20.33;;;;;;;0.89;87.43;101386.38;5066209;28;20083;-85
2021/12/06 07:17:53;;;;;;;74.33;19.87;;;;;;;0.94;87.08;101384.78;5067225;28;20052;-85
2021/12/06 07:20:20;;;;;;;89.57;20.70;;;;;;;0.97;86.94;101390.00;5066658;28;20083;-85
2021/12/06 07:22:47;;;;;;;57.77;20.70;;;;;;;1.00;87.26;101389.19;5069698;28;20025;-85
2021/12/06 07:25:15;;;;;;;77.40;20.40;;;;;;;1.02;87.40;101392.66;5066202;28;21401;-85
2021/12/06 07:27:41;;;;;;;198.97;22.83;;;;;;;0.99;87.33;101395.13;5064455;28;20035;-85
2021/12/06 07:30:09;;;;;;;186.87;23.60;;;;;;;1.04;87.56;101402.09;5067977;28;20073;-86
2021/12/06 07:32:34;;;;;;;154.80;23.43;;;;;;;1.09;87.71;101404.78;5068728;28;20112;-85
2021/12/06 07:34:59;;;;;;;160.33;23.27;;;;;;;1.13;87.75;101406.56;5071795;28;20546;-85
2021/12/06 07:37:24;;;;;;;180.70;23.90;;;;;;;1.11;87.99;101410.78;5071918;28;20031;-85
2021/12/06 07:39:50;;;;;;;123.30;23.80;;;;;;;1.17;87.74;101412.63;5073204;28;20020;-85
2021/12/06 07:42:16;;;;;;;94.03;23.70;;;;;;;1.19;88.29;101416.97;5074748;28;20392;-85
2021/12/06 07:44:42;;;;;;;134.30;24.13;;;;;;;1.20;88.02;101413.56;5074558;28;20047;-85
2021/12/06 07:47:10;;;;;;;116.77;25.53;;;;;;;1.22;88.33;101416.16;5071832;28;20028;-85
2021/12/06 07:49:37;;;;;;;58.97;24.70;;;;;;;1.27;88.40;101424.81;5073485;28;20025;-85
2021/12/06 07:52:05;;;;;;;96.23;25.70;;;;;;;1.30;88.72;101424.88;5073858;28;20375;-85
2021/12/06 07:54:32;;;;;;;64.00;26.87;;;;;;;1.34;88.85;101429.25;5071886;28;20028;-85
2021/12/06 07:56:57;;;;;;;144.97;25.57;;;;;;;1.30;88.93;101424.88;5073146;28;20083;-85
2021/12/06 07:59:23;;;;;;;55.53;24.77;;;;;;;1.36;88.90;101417.34;5076917;28;20435;-85
2021/12/06 08:01:48;;;;;;;100.87;25.37;;;;;;;1.43;89.09;101420.91;5077161;28;20036;-86
2021/12/06 08:04:13;;;;;;;134.30;27.00;;;;;;;1.46;89.07;101409.84;5074030;28;20495;-85
2021/12/06 08:06:39;;;;;;;93.83;27.03;;;;;;;1.46;89.15;101410.69;5074121;28;20509;-84
2021/12/06 08:09:05;;;;;;;75.37;26.03;;;;;;;1.50;89.28;101401.38;5074133;28;20041;-85
2021/12/06 08:11:30;;;;;;;105.93;27.90;;;;;;;1.52;89.32;101399.72;5074232;28;20376;-85
2021/12/06 08:13:56;;;;;;;110.13;29.27;;;;;;;1.56;89.40;101411.75;5074092;28;20024;-86
2021/12/06 08:16:25;;;;;;;123.03;27.90;;;;;;;1.58;89.54;101407.50;5074211;28;20078;-86
2021/12/06 08:18:52;;;;;;;169.20;28.13;;;;;;;1.57;89.38;101398.09;5073758;28;20044;-85
2021/12/06 08:21:19;;;;;;;117.50;27.67;;;;;;;1.56;89.43;101392.94;5074148;28;20095;-85
2021/12/06 08:23:46;;;;;;;116.77;28.47;;;;;;;1.57;89.38;101392.09;5074094;28;20036;-85
2021/12/06 08:26:13;;;;;;;81.67;26.33;;;;;;;1.58;89.51;101384.44;5073340;28;20024;-85
2021/12/06 08:28:40;;;;;;;83.43;27.30;;;;;;;1.60;89.39;101393.03;5074002;28;20024;-86
2021/12/06 08:31:07;;;;;;;114.40;26.93;;;;;;;1.60;89.46;101387.91;5073158;28;20117;-85
2021/12/06 08:33:34;;;;;;;128.87;26.60;;;;;;;1.59;89.35;101391.28;5070090;28;20085;-85
2021/12/06 08:36:00;;;;;;;203.57;26.97;;;;;;;1.57;89.42;101382.69;5072381;28;20052;-85
2021/12/06 08:38:28;;;;;;;166.60;25.67;;;;;;;1.59;89.40;101390.44;5075118;28;20119;-85
2021/12/06 08:40:55;;;;;;;85.20;25.07;;;;;;;1.63;89.52;101397.34;5070508;28;20104;-85
2021/12/06 08:43:21;;;;;;;90.80;25.83;;;;;;;1.65;89.61;101399.13;5072074;28;20406;-85
2021/12/06 08:45:59;;;;;;;116.97;25.50;;;;;;;1.66;89.37;101397.41;5070992;28;20035;-85
2021/12/06 08:48:27;;;;;;;140.00;26.53;;;;;;;1.63;88.99;101405.91;5073196;28;20036;-85
2021/12/06 08:50:54;;;;;;;113.80;25.53;;;;;;;1.60;89.25;101408.41;5070632;28;20027;-85
2021/12/06 08:53:19;;;;;;;85.47;25.20;;;;;;;1.67;89.16;101417.09;5073011;28;20480;-85
2021/12/06 08:55:45;;;;;;;89.93;24.50;;;;;;;1.70;89.02;101418.88;5071758;28;20025;-85
2021/12/06 08:58:10;;;;;;;130.30;26.27;;;;;;;1.72;88.73;101420.63;5072990;28;20486;-85
2021/12/06 09:00:37;;;;;;;112.77;25.93;;;;;;;1.73;88.80;101424.03;5071568;28;20371;-85
2021/12/06 09:03:03;;;;;;;93.07;26.37;;;;;;;1.79;88.88;101431.88;5066292;28;20432;-86
2021/12/06 09:05:32;;;;;;;92.03;25.70;;;;;;;1.80;88.92;101431.88;5069085;28;20408;-85
2021/12/06 09:07:57;;;;;;;103.40;25.10;;;;;;;1.81;88.57;101430.22;5069536;28;20021;-85
2021/12/06 09:10:24;;;;;;;74.27;23.60;;;;;;;1.81;88.44;101427.63;5073476;28;20040;-85
2021/12/06 09:12:49;;;;;;;91.30;23.93;;;;;;;1.78;88.79;101425.00;5073198;28;20016;-86
2021/12/06 09:15:17;;;;;;;85.53;25.07;;;;;;;1.77;88.94;101430.97;5078803;28;20445;-85
2021/12/06 09:17:43;;;;;;;89.73;25.90;;;;;;;1.77;88.72;101428.41;5071437;28;20082;-85
2021/12/06 09:20:11;;;;;;;77.23;26.40;;;;;;;1.79;88.84;101432.72;5072481;28;20472;-85
2021/12/06 09:22:38;;;;;;;74.00;26.63;;;;;;;1.81;89.06;101432.78;5070609;28;20091;-85
2021/12/06 09:25:07;;;;;;;71.60;27.90;;;;;;;1.80;89.00;101436.16;5068253;28;20064;-85
2021/12/06 09:27:32;;;;;;;86.30;30.10;;;;;;;1.83;89.20;101433.66;5065386;28;20036;-85
2021/12/06 09:29:58;;;;;;;81.07;30.73;;;;;;;1.86;89.30;101431.19;5071627;28;20044;-85
2021/12/06 09:32:24;;;;;;;84.50;30.83;;;;;;;1.88;89.42;101433.75;5066398;28;20029;-86
2021/12/06 09:34:52;;;;;;;88.23;31.83;;;;;;;1.84;89.21;101427.72;5068443;28;20058;-85
2021/12/06 09:37:19;;;;;;;91.00;33.13;;;;;;;1.86;89.38;101430.28;5067125;28;20037;-85
2021/12/06 09:39:45;;;;;;;78.53;33.57;;;;;;;1.84;89.54;101432.84;5068127;28;20036;-85
2021/12/06 09:42:10;;;;;;;81.93;33.20;;;;;;;1.83;89.45;101431.09;5069004;28;20041;-85
2021/12/06 09:44:36;;;;;;;82.10;32.83;;;;;;;1.84;89.06;101432.84;5068611;28;20033;-85
2021/12/06 09:47:03;;;;;;;74.73;32.73;;;;;;;1.82;89.29;101431.94;5074595;28;20020;-85
2021/12/06 09:49:29;;;;;;;80.10;34.80;;;;;;;1.81;89.32;101437.91;5069126;28;20549;-86
2021/12/06 09:52:00;;;;;;;77.53;32.83;;;;;;;1.84;89.52;101432.84;5069355;28;20028;-85
2021/12/06 09:54:29;;;;;;;78.03;29.67;;;;;;;1.84;89.21;101432.84;5069042;28;20021;-86
2021/12/06 09:56:55;;;;;;;71.13;30.27;;;;;;;1.80;89.27;101431.03;5075541;28;20286;-86
2021/12/06 09:59:26;;;;;;;96.03;30.13;;;;;;;1.76;88.87;101435.25;5072321;28;20361;-85
2021/12/06 10:02:06;;;;;;;111.68;32.13;;;;;;;1.76;89.16;101437.81;5075335;28;20028;-86
2021/12/06 10:04:35;;;;;;;97.43;32.23;;;;;;;1.74;89.13;101425.78;5068284;28;20024;-85
2021/12/06 10:07:01;;;;;;;91.43;32.13;;;;;;;1.75;89.33;101437.78;5068541;28;20021;-85
2021/12/06 10:09:27;;;;;;;76.07;31.47;;;;;;;1.73;89.03;101434.31;5069123;28;20566;-85
2021/12/06 10:11:55;;;;;;;78.60;33.03;;;;;;;1.76;89.48;101434.38;5068158;28;20021;-85
2021/12/06 10:14:20;;;;;;;94.27;33.37;;;;;;;1.78;89.52;101432.72;5069591;28;20036;-85
2021/12/06 10:16:47;;;;;;;83.23;33.03;;;;;;;1.78;89.50;101422.44;5070888;28;20024;-85
2021/12/06 10:19:13;;;;;;;91.60;33.83;;;;;;;1.82;89.73;101419.97;5069226;28;20016;-86
2021/12/06 10:21:40;;;;;;;79.03;33.03;;;;;;;1.85;89.53;101414.03;5065348;28;20105;-85
2021/12/06 10:24:17;;;;;;;64.50;33.50;;;;;;;1.89;89.65;101418.38;5066073;28;20056;-86
2021/12/06 10:26:42;;;;;;;87.43;33.33;;;;;;;1.87;89.69;101407.25;5063089;28;20044;-86
2021/12/06 10:29:12;;;;;;;69.27;34.63;;;;;;;1.91;89.87;101403.88;5066507;28;20051;-86
2021/12/06 10:31:41;;;;;;;69.03;34.03;;;;;;;1.95;90.19;101399.69;5064378;28;20024;-85
2021/12/06 10:34:07;;;;;;;75.60;34.23;;;;;;;1.97;90.06;101390.28;5065946;28;20035;-85
2021/12/06 10:36:34;;;;;;;75.37;35.33;;;;;;;1.97;90.06;101388.63;5062051;28;20070;-85
2021/12/06 10:39:05;;;;;;;69.50;34.97;;;;;;;2.01;90.12;101378.41;5064955;28;20033;-85
2021/12/06 10:41:33;;;;;;;72.10;34.20;;;;;;;1.99;90.03;101380.09;5068472;28;20024;-85
2021/12/06 10:44:09;;;;;;;67.13;34.30;;;;;;;2.03;90.19;101384.44;5065980;28;20472;-85
2021/12/06 10:46:35;;;;;;;44.97;26.87;;;;;;;1.99;89.81;101386.06;5066292;28;20016;-85
2021/12/06 10:49:05;;;;;;;44.93;27.03;;;;;;;1.99;89.60;101385.22;5065181;28;20483;-85
2021/12/06 10:51:31;;;;;;;38.77;23.60;;;;;;;1.96;88.90;101368.91;5074069;28;20475;-85
2021/12/06 10:54:03;;;;;;;43.27;25.53;;;;;;;1.96;89.07;101365.50;5083329;28;20115;-86
2021/12/06 10:56:44;;;;;;;43.13;24.48;;;;;;;1.96;88.95;101358.66;5068442;28;20090;-85
2021/12/06 10:59:25;;;;;;;45.60;26.45;;;;;;;1.99;89.34;101349.28;5064154;28;20472;-85
2021/12/06 11:01:53;;;;;;;42.70;25.87;;;;;;;1.99;89.63;101349.28;5062214;28;20043;-85
2021/12/06 11:04:21;;;;;;;44.67;26.73;;;;;;;2.01;89.46;101338.19;5067325;28;20463;-85
2021/12/06 11:06:50;;;;;;;45.97;26.40;;;;;;;2.04;89.37;101339.97;5068655;28;20059;-85
2021/12/06 11:09:22;;;;;;;42.93;26.37;;;;;;;2.07;89.56;101337.44;5069442;28;20057;-85
2021/12/06 11:11:50;;;;;;;44.37;25.57;;;;;;;2.07;89.30;101319.47;5072996;28;20192;-85
2021/12/06 11:14:30;;;;;;;40.93;23.63;;;;;;;2.09;88.93;101315.22;5070646;28;20028;-85
2021/12/06 11:17:01;;;;;;;37.40;21.80;;;;;;;2.11;88.63;101323.81;5069915;28;20524;-85
2021/12/06 11:19:29;;;;;;;43.85;23.48;;;;;;;2.08;88.32;101323.78;5071375;28;20032;-85
2021/12/06 11:21:58;;;;;;;42.47;22.47;;;;;;;2.05;88.29;101323.75;5071437;28;20021;-85
2021/12/06 11:24:39;;;;;;;46.27;24.53;;;;;;;2.06;88.16;101326.31;5071852;28;20040;-85
2021/12/06 11:27:32;;;;;;;47.03;24.90;;;;;;;2.06;88.19;101312.59;5072216;28;20031;-85
2021/12/06 11:30:03;;;;;;;47.43;24.57;;;;;;;2.09;88.29;101312.66;5073809;28;20434;-85